Hlavní strana
METAR-TAF:

METAR-TAF

Letiště :

Lycksele, Švédsko

zeměpisná šířka: 64-32-51N, zeměpisná délka: 018-43-03E, výška: 211 m

Aktuální stav počasí

Zpráva byla vytvořena před 10 minutami, v 15:20 UTC
Západoseverozápadní vítr 12 kt, proměnlivý mezi západním a severozápadním
Teplota 7°C
Vlhkost vzduchu 61%
Tlak 1018 hPa
Viditelnost 10 km a více
Žádná oblačnost pod 1500 m, nevyskytují se cumulonimby.

METAR: ESNL 281520Z 29012KT 260V320 CAVOK 07/00 Q1018

Čas: 16:30 (15:30 UTC)


TAF: chybějící

Stav a předpovědi počasí z více než 4 000 letišť (zprávy METAR a TAF).

Červené a žluté tečky na mapě představují dostupné meteorologické stanice.

Když kurzor umístíte na tečku, zobrazí se název stanice.

Pak kliknutím zobrazíte stav a předpověď počasí.

Chcete-li změnit mapu, kliknutím na zelené tlačítko se znaménkem +mapu přiblížíte, kliknutím na zelené tlačítko se znaménkem – mapu oddálíte a kliknutím na zelené šipky přejdete na sousední mapy.


METAR-TAF: